Crane, Indiana
Current Conditions -  °F | °C
As of 12:55 PM on Monday 20 Oct 2014 (Local Time) from KDCY Reporting Station
Clear Clear  
Wind Chill: 66°   Ceiling: Unl
Heat Index: 66°   Visibility: 10mi
Dew Point: 53°   Wind: 12mph
Humidity: 62%   Direction: 240°WSW
Pressure: 29.9"   Gusts: NA
Location:  38.89°N, 86.9°W
Report Text: KDCY 201755Z AUTO 24010KT 10SM CLR 19/12 A2990 RMK AO2 T01900116 10191 20100
Loading
Personal Weather Stations






























Interactive Weather Map
Tropical Storm Tracking
New forecast layout! Learn more

10-Day Weather Forecast

Advertisements
Track Severe Weather on mobile